sensor_id;sensor_type;location;lat;lon;timestamp;P1;P2;P0
43280;PMS5003;62175;49.416;8.690;2023-06-24T00:00:55;8;8;
43280;PMS5003;62175;49.416;8.690;2023-06-24T00:03:22;9;9;
43280;PMS5003;62175;49.416;8.690;2023-06-24T00:05:49;10;8;
43280;PMS5003;62175;49.416;8.690;2023-06-24T00:08:16;11;9;
43280;PMS5003;62175;49.416;8.690;2023-06-24T00:10:43;9;9;
43280;PMS5003;62175;49.416;8.690;2023-06-24T00:13:09;8;8;
43280;PMS5003;62175;49.416;8.690;2023-06-24T00:15:36;5;5;
43280;PMS5003;62175;49.416;8.690;2023-06-24T00:18:03;8;8;
43280;PMS5003;62175;49.416;8.690;2023-06-24T00:20:30;8;8;
43280;PMS5003;62175;49.416;8.690;2023-06-24T00:22:57;8;8;
43280;PMS5003;62175;49.416;8.690;2023-06-24T00:25:24;6;6;
43280;PMS5003;62175;49.416;8.690;2023-06-24T00:27:51;7;7;
43280;PMS5003;62175;49.416;8.690;2023-06-24T00:30:17;9;8;
43280;PMS5003;62175;49.416;8.690;2023-06-24T00:32:44;7;7;
43280;PMS5003;62175;49.416;8.690;2023-06-24T00:35:11;10;9;
43280;PMS5003;62175;49.416;8.690;2023-06-24T00:37:38;11;9;
43280;PMS5003;62175;49.416;8.690;2023-06-24T00:40:05;8;8;
43280;PMS5003;62175;49.416;8.690;2023-06-24T00:42:33;7;7;
43280;PMS5003;62175;49.416;8.690;2023-06-24T00:45:00;10;9;
43280;PMS5003;62175;49.416;8.690;2023-06-24T00:47:28;7;7;
43280;PMS5003;62175;49.416;8.690;2023-06-24T00:49:55;11;9;
43280;PMS5003;62175;49.416;8.690;2023-06-24T00:52:22;9;9;
43280;PMS5003;62175;49.416;8.690;2023-06-24T00:54:49;7;7;
43280;PMS5003;62175;49.416;8.690;2023-06-24T00:57:16;7;7;
43280;PMS5003;62175;49.416;8.690;2023-06-24T00:59:47;7;7;
43280;PMS5003;62175;49.416;8.690;2023-06-24T01:02:13;11;10;
43280;PMS5003;62175;49.416;8.690;2023-06-24T01:04:40;6;5;
43280;PMS5003;62175;49.416;8.690;2023-06-24T01:07:07;8;8;
43280;PMS5003;62175;49.416;8.690;2023-06-24T01:09:34;8;8;
43280;PMS5003;62175;49.416;8.690;2023-06-24T01:12:01;6;6;
43280;PMS5003;62175;49.416;8.690;2023-06-24T01:14:28;11;10;
43280;PMS5003;62175;49.416;8.690;2023-06-24T01:16:56;9;8;
43280;PMS5003;62175;49.416;8.690;2023-06-24T01:19:37;8;8;
43280;PMS5003;62175;49.416;8.690;2023-06-24T01:22:27;10;9;
43280;PMS5003;62175;49.416;8.690;2023-06-24T01:25:15;8;7;
43280;PMS5003;62175;49.416;8.690;2023-06-24T01:28:10;9;8;
43280;PMS5003;62175;49.416;8.690;2023-06-24T01:34:08;10;10;
43280;PMS5003;62175;49.416;8.690;2023-06-24T01:36:43;9;8;
43280;PMS5003;62175;49.416;8.690;2023-06-24T01:39:16;8;8;
43280;PMS5003;62175;49.416;8.690;2023-06-24T01:41:59;8;8;
43280;PMS5003;62175;49.416;8.690;2023-06-24T01:44:32;9;9;
43280;PMS5003;62175;49.416;8.690;2023-06-24T01:47:02;8;8;
43280;PMS5003;62175;49.416;8.690;2023-06-24T01:49:33;10;10;
43280;PMS5003;62175;49.416;8.690;2023-06-24T01:52:04;10;10;
43280;PMS5003;62175;49.416;8.690;2023-06-24T01:54:34;9;9;
43280;PMS5003;62175;49.416;8.690;2023-06-24T01:57:03;6;6;
43280;PMS5003;62175;49.416;8.690;2023-06-24T01:59:34;9;8;
43280;PMS5003;62175;49.416;8.690;2023-06-24T02:02:06;7;7;
43280;PMS5003;62175;49.416;8.690;2023-06-24T02:04:34;9;9;
43280;PMS5003;62175;49.416;8.690;2023-06-24T02:07:02;7;7;
43280;PMS5003;62175;49.416;8.690;2023-06-24T02:09:31;9;8;
43280;PMS5003;62175;49.416;8.690;2023-06-24T02:12:00;9;8;
43280;PMS5003;62175;49.416;8.690;2023-06-24T02:14:29;10;9;
43280;PMS5003;62175;49.416;8.690;2023-06-24T02:16:58;10;10;
43280;PMS5003;62175;49.416;8.690;2023-06-24T02:19:28;10;10;
43280;PMS5003;62175;49.416;8.690;2023-06-24T02:21:57;11;10;
43280;PMS5003;62175;49.416;8.690;2023-06-24T02:24:26;11;8;
43280;PMS5003;62175;49.416;8.690;2023-06-24T02:26:54;7;7;
43280;PMS5003;62175;49.416;8.690;2023-06-24T02:29:24;8;8;
43280;PMS5003;62175;49.416;8.690;2023-06-24T02:31:53;8;8;
43280;PMS5003;62175;49.416;8.690;2023-06-24T02:34:22;9;8;
43280;PMS5003;62175;49.416;8.690;2023-06-24T02:36:49;8;8;
43280;PMS5003;62175;49.416;8.690;2023-06-24T02:39:16;8;8;
43280;PMS5003;62175;49.416;8.690;2023-06-24T02:41:44;8;8;
43280;PMS5003;62175;49.416;8.690;2023-06-24T02:44:11;8;7;
43280;PMS5003;62175;49.416;8.690;2023-06-24T02:46:38;8;8;
43280;PMS5003;62175;49.416;8.690;2023-06-24T02:49:08;9;9;
43280;PMS5003;62175;49.416;8.690;2023-06-24T02:51:36;9;8;
43280;PMS5003;62175;49.416;8.690;2023-06-24T02:54:05;7;6;
43280;PMS5003;62175;49.416;8.690;2023-06-24T02:56:34;9;8;
43280;PMS5003;62175;49.416;8.690;2023-06-24T02:59:01;8;7;
43280;PMS5003;62175;49.416;8.690;2023-06-24T03:01:28;7;7;
43280;PMS5003;62175;49.416;8.690;2023-06-24T03:03:56;8;7;
43280;PMS5003;62175;49.416;8.690;2023-06-24T03:06:24;8;7;
43280;PMS5003;62175;49.416;8.690;2023-06-24T03:08:51;8;8;
43280;PMS5003;62175;49.416;8.690;2023-06-24T03:11:18;8;8;
43280;PMS5003;62175;49.416;8.690;2023-06-24T03:13:45;8;8;
43280;PMS5003;62175;49.416;8.690;2023-06-24T03:16:12;7;7;
43280;PMS5003;62175;49.416;8.690;2023-06-24T03:18:40;8;8;
43280;PMS5003;62175;49.416;8.690;2023-06-24T03:21:07;8;8;
43280;PMS5003;62175;49.416;8.690;2023-06-24T03:23:34;8;7;
43280;PMS5003;62175;49.416;8.690;2023-06-24T03:26:01;7;7;
43280;PMS5003;62175;49.416;8.690;2023-06-24T03:28:29;6;4;
43280;PMS5003;62175;49.416;8.690;2023-06-24T03:30:56;8;8;
43280;PMS5003;62175;49.416;8.690;2023-06-24T03:33:22;8;7;
43280;PMS5003;62175;49.416;8.690;2023-06-24T03:35:49;8;7;
43280;PMS5003;62175;49.416;8.690;2023-06-24T03:38:17;9;8;
43280;PMS5003;62175;49.416;8.690;2023-06-24T03:40:44;8;7;
43280;PMS5003;62175;49.416;8.690;2023-06-24T03:43:12;9;8;
43280;PMS5003;62175;49.416;8.690;2023-06-24T03:45:39;7;7;
43280;PMS5003;62175;49.416;8.690;2023-06-24T03:48:06;7;7;
43280;PMS5003;62175;49.416;8.690;2023-06-24T03:50:34;7;7;
43280;PMS5003;62175;49.416;8.690;2023-06-24T03:53:01;8;8;
43280;PMS5003;62175;49.416;8.690;2023-06-24T03:55:28;9;9;
43280;PMS5003;62175;49.416;8.690;2023-06-24T03:57:55;7;7;
43280;PMS5003;62175;49.416;8.690;2023-06-24T04:00:22;8;7;
43280;PMS5003;62175;49.416;8.690;2023-06-24T04:02:49;8;8;
43280;PMS5003;62175;49.416;8.690;2023-06-24T04:05:16;6;6;
43280;PMS5003;62175;49.416;8.690;2023-06-24T04:07:43;8;7;
43280;PMS5003;62175;49.416;8.690;2023-06-24T04:10:10;10;9;
43280;PMS5003;62175;49.416;8.690;2023-06-24T04:12:37;8;8;
43280;PMS5003;62175;49.416;8.690;2023-06-24T04:15:04;9;9;
43280;PMS5003;62175;49.416;8.690;2023-06-24T04:17:31;9;8;
43280;PMS5003;62175;49.416;8.690;2023-06-24T04:19:58;9;9;
43280;PMS5003;62175;49.416;8.690;2023-06-24T04:22:26;8;7;
43280;PMS5003;62175;49.416;8.690;2023-06-24T04:24:53;8;7;
43280;PMS5003;62175;49.416;8.690;2023-06-24T04:27:20;8;7;
43280;PMS5003;62175;49.416;8.690;2023-06-24T04:29:48;9;9;
43280;PMS5003;62175;49.416;8.690;2023-06-24T04:32:14;9;8;
43280;PMS5003;62175;49.416;8.690;2023-06-24T04:34:41;8;7;
43280;PMS5003;62175;49.416;8.690;2023-06-24T04:37:08;6;6;
43280;PMS5003;62175;49.416;8.690;2023-06-24T04:39:35;8;8;
43280;PMS5003;62175;49.416;8.690;2023-06-24T04:42:02;10;9;
43280;PMS5003;62175;49.416;8.690;2023-06-24T04:44:30;7;7;
43280;PMS5003;62175;49.416;8.690;2023-06-24T04:46:57;6;6;
43280;PMS5003;62175;49.416;8.690;2023-06-24T04:49:24;10;9;
43280;PMS5003;62175;49.416;8.690;2023-06-24T04:51:51;8;8;
43280;PMS5003;62175;49.416;8.690;2023-06-24T04:54:17;7;7;
43280;PMS5003;62175;49.416;8.690;2023-06-24T04:56:44;6;6;
43280;PMS5003;62175;49.416;8.690;2023-06-24T04:59:11;7;7;
43280;PMS5003;62175;49.416;8.690;2023-06-24T05:01:38;8;8;
43280;PMS5003;62175;49.416;8.690;2023-06-24T05:04:05;8;8;
43280;PMS5003;62175;49.416;8.690;2023-06-24T05:06:32;8;8;
43280;PMS5003;62175;49.416;8.690;2023-06-24T05:08:58;8;7;
43280;PMS5003;62175;49.416;8.690;2023-06-24T05:11:25;6;6;
43280;PMS5003;62175;49.416;8.690;2023-06-24T05:13:52;7;7;
43280;PMS5003;62175;49.416;8.690;2023-06-24T05:16:19;7;7;
43280;PMS5003;62175;49.416;8.690;2023-06-24T05:18:46;7;7;
43280;PMS5003;62175;49.416;8.690;2023-06-24T05:21:14;8;7;
43280;PMS5003;62175;49.416;8.690;2023-06-24T05:23:40;9;9;
43280;PMS5003;62175;49.416;8.690;2023-06-24T05:26:07;6;5;
43280;PMS5003;62175;49.416;8.690;2023-06-24T05:28:34;9;8;
43280;PMS5003;62175;49.416;8.690;2023-06-24T05:31:01;8;8;
43280;PMS5003;62175;49.416;8.690;2023-06-24T05:33:27;8;8;
43280;PMS5003;62175;49.416;8.690;2023-06-24T05:35:54;8;8;
43280;PMS5003;62175;49.416;8.690;2023-06-24T05:38:21;10;8;
43280;PMS5003;62175;49.416;8.690;2023-06-24T05:40:48;9;9;
43280;PMS5003;62175;49.416;8.690;2023-06-24T05:43:15;8;8;
43280;PMS5003;62175;49.416;8.690;2023-06-24T05:45:41;8;8;
43280;PMS5003;62175;49.416;8.690;2023-06-24T05:48:08;7;6;
43280;PMS5003;62175;49.416;8.690;2023-06-24T05:50:35;9;9;
43280;PMS5003;62175;49.416;8.690;2023-06-24T05:53:02;9;8;
43280;PMS5003;62175;49.416;8.690;2023-06-24T05:55:29;8;8;
43280;PMS5003;62175;49.416;8.690;2023-06-24T05:57:56;8;7;
43280;PMS5003;62175;49.416;8.690;2023-06-24T06:00:23;9;8;
43280;PMS5003;62175;49.416;8.690;2023-06-24T06:02:50;9;9;
43280;PMS5003;62175;49.416;8.690;2023-06-24T06:05:17;8;8;
43280;PMS5003;62175;49.416;8.690;2023-06-24T06:07:44;9;9;
43280;PMS5003;62175;49.416;8.690;2023-06-24T06:10:12;10;9;
43280;PMS5003;62175;49.416;8.690;2023-06-24T06:12:39;9;9;
43280;PMS5003;62175;49.416;8.690;2023-06-24T06:15:06;9;8;
43280;PMS5003;62175;49.416;8.690;2023-06-24T06:17:37;11;10;
43280;PMS5003;62175;49.416;8.690;2023-06-24T06:20:04;8;7;
43280;PMS5003;62175;49.416;8.690;2023-06-24T06:22:32;12;9;
43280;PMS5003;62175;49.416;8.690;2023-06-24T06:24:59;9;8;
43280;PMS5003;62175;49.416;8.690;2023-06-24T06:27:27;12;10;
43280;PMS5003;62175;49.416;8.690;2023-06-24T06:29:55;9;8;
43280;PMS5003;62175;49.416;8.690;2023-06-24T06:32:21;9;8;
43280;PMS5003;62175;49.416;8.690;2023-06-24T06:34:49;11;8;
43280;PMS5003;62175;49.416;8.690;2023-06-24T06:37:17;8;8;
43280;PMS5003;62175;49.416;8.690;2023-06-24T06:39:44;10;9;
43280;PMS5003;62175;49.416;8.690;2023-06-24T06:42:11;11;10;
43280;PMS5003;62175;49.416;8.690;2023-06-24T06:44:38;9;9;
43280;PMS5003;62175;49.416;8.690;2023-06-24T06:47:05;12;11;
43280;PMS5003;62175;49.416;8.690;2023-06-24T06:49:33;12;11;
43280;PMS5003;62175;49.416;8.690;2023-06-24T06:52:00;8;8;
43280;PMS5003;62175;49.416;8.690;2023-06-24T06:54:27;9;8;
43280;PMS5003;62175;49.416;8.690;2023-06-24T06:56:54;8;8;
43280;PMS5003;62175;49.416;8.690;2023-06-24T06:59:21;8;7;
43280;PMS5003;62175;49.416;8.690;2023-06-24T07:01:48;8;8;
43280;PMS5003;62175;49.416;8.690;2023-06-24T07:04:15;10;9;
43280;PMS5003;62175;49.416;8.690;2023-06-24T07:06:42;9;8;
43280;PMS5003;62175;49.416;8.690;2023-06-24T07:09:10;7;6;
43280;PMS5003;62175;49.416;8.690;2023-06-24T07:11:37;7;6;
43280;PMS5003;62175;49.416;8.690;2023-06-24T07:14:04;8;8;
43280;PMS5003;62175;49.416;8.690;2023-06-24T07:16:31;10;9;
43280;PMS5003;62175;49.416;8.690;2023-06-24T07:19:00;9;8;
43280;PMS5003;62175;49.416;8.690;2023-06-24T07:21:27;8;8;
43280;PMS5003;62175;49.416;8.690;2023-06-24T07:23:53;13;12;
43280;PMS5003;62175;49.416;8.690;2023-06-24T07:26:20;9;9;
43280;PMS5003;62175;49.416;8.690;2023-06-24T07:28:48;10;9;
43280;PMS5003;62175;49.416;8.690;2023-06-24T07:31:15;6;5;
43280;PMS5003;62175;49.416;8.690;2023-06-24T07:33:41;10;10;
43280;PMS5003;62175;49.416;8.690;2023-06-24T07:36:08;8;8;
43280;PMS5003;62175;49.416;8.690;2023-06-24T07:38:35;9;8;
43280;PMS5003;62175;49.416;8.690;2023-06-24T07:41:02;7;7;
43280;PMS5003;62175;49.416;8.690;2023-06-24T07:43:29;9;9;
43280;PMS5003;62175;49.416;8.690;2023-06-24T07:45:56;8;8;
43280;PMS5003;62175;49.416;8.690;2023-06-24T07:48:23;11;9;
43280;PMS5003;62175;49.416;8.690;2023-06-24T07:50:50;10;8;
43280;PMS5003;62175;49.416;8.690;2023-06-24T07:53:16;6;6;
43280;PMS5003;62175;49.416;8.690;2023-06-24T07:55:43;10;8;
43280;PMS5003;62175;49.416;8.690;2023-06-24T07:58:10;8;8;
43280;PMS5003;62175;49.416;8.690;2023-06-24T08:00:37;8;7;
43280;PMS5003;62175;49.416;8.690;2023-06-24T08:03:04;11;10;
43280;PMS5003;62175;49.416;8.690;2023-06-24T08:05:31;7;6;
43280;PMS5003;62175;49.416;8.690;2023-06-24T08:07:57;6;6;
43280;PMS5003;62175;49.416;8.690;2023-06-24T08:10:24;10;9;
43280;PMS5003;62175;49.416;8.690;2023-06-24T08:12:51;7;7;
43280;PMS5003;62175;49.416;8.690;2023-06-24T08:15:18;9;9;
43280;PMS5003;62175;49.416;8.690;2023-06-24T08:17:50;7;6;
43280;PMS5003;62175;49.416;8.690;2023-06-24T08:20:17;8;8;
43280;PMS5003;62175;49.416;8.690;2023-06-24T08:22:44;8;7;
43280;PMS5003;62175;49.416;8.690;2023-06-24T08:25:11;8;8;
43280;PMS5003;62175;49.416;8.690;2023-06-24T08:27:37;9;8;
43280;PMS5003;62175;49.416;8.690;2023-06-24T08:30:36;9;9;
43280;PMS5003;62175;49.416;8.690;2023-06-24T08:33:03;7;7;
43280;PMS5003;62175;49.416;8.690;2023-06-24T08:35:46;9;9;
43280;PMS5003;62175;49.416;8.690;2023-06-24T08:38:12;7;7;
43280;PMS5003;62175;49.416;8.690;2023-06-24T08:40:39;9;9;
43280;PMS5003;62175;49.416;8.690;2023-06-24T08:43:07;9;8;
43280;PMS5003;62175;49.416;8.690;2023-06-24T08:45:34;9;9;
43280;PMS5003;62175;49.416;8.690;2023-06-24T08:51:35;10;9;
43280;PMS5003;62175;49.416;8.690;2023-06-24T08:54:07;8;7;
43280;PMS5003;62175;49.416;8.690;2023-06-24T08:56:35;11;10;
43280;PMS5003;62175;49.416;8.690;2023-06-24T08:59:03;9;8;
43280;PMS5003;62175;49.416;8.690;2023-06-24T09:01:32;9;9;
43280;PMS5003;62175;49.416;8.690;2023-06-24T09:04:00;9;9;
43280;PMS5003;62175;49.416;8.690;2023-06-24T09:06:29;9;9;
43280;PMS5003;62175;49.416;8.690;2023-06-24T09:08:57;8;8;
43280;PMS5003;62175;49.416;8.690;2023-06-24T09:41:01;12;11;
43280;PMS5003;62175;49.416;8.690;2023-06-24T09:43:28;9;9;
43280;PMS5003;62175;49.416;8.690;2023-06-24T09:45:56;9;8;
43280;PMS5003;62175;49.416;8.690;2023-06-24T09:48:24;12;10;
43280;PMS5003;62175;49.416;8.690;2023-06-24T09:50:53;9;9;
43280;PMS5003;62175;49.416;8.690;2023-06-24T09:53:22;14;12;
43280;PMS5003;62175;49.416;8.690;2023-06-24T09:55:50;12;12;
43280;PMS5003;62175;49.416;8.690;2023-06-24T09:58:19;10;10;
43280;PMS5003;62175;49.416;8.690;2023-06-24T10:00:49;11;11;
43280;PMS5003;62175;49.416;8.690;2023-06-24T10:03:18;9;9;
43280;PMS5003;62175;49.416;8.690;2023-06-24T10:05:48;11;10;
43280;PMS5003;62175;49.416;8.690;2023-06-24T10:08:16;10;9;
43280;PMS5003;62175;49.416;8.690;2023-06-24T10:10:44;11;11;
43280;PMS5003;62175;49.416;8.690;2023-06-24T10:13:12;10;10;
43280;PMS5003;62175;49.416;8.690;2023-06-24T10:15:39;10;10;
43280;PMS5003;62175;49.416;8.690;2023-06-24T22:02:59;14;14;
43280;PMS5003;62175;49.416;8.690;2023-06-24T22:05:26;17;14;
43280;PMS5003;62175;49.416;8.690;2023-06-24T22:07:54;13;13;
43280;PMS5003;62175;49.416;8.690;2023-06-24T22:10:21;11;11;
43280;PMS5003;62175;49.416;8.690;2023-06-24T22:12:48;13;13;
43280;PMS5003;62175;49.416;8.690;2023-06-24T22:15:15;13;13;
43280;PMS5003;62175;49.416;8.690;2023-06-24T22:17:42;13;12;
43280;PMS5003;62175;49.416;8.690;2023-06-24T22:20:09;12;11;
43280;PMS5003;62175;49.416;8.690;2023-06-24T22:22:40;11;10;
43280;PMS5003;62175;49.416;8.690;2023-06-24T22:25:08;13;12;
43280;PMS5003;62175;49.416;8.690;2023-06-24T22:27:35;17;15;
43280;PMS5003;62175;49.416;8.690;2023-06-24T22:30:02;11;11;
43280;PMS5003;62175;49.416;8.690;2023-06-24T22:32:30;12;11;
43280;PMS5003;62175;49.416;8.690;2023-06-24T22:34:58;14;13;
43280;PMS5003;62175;49.416;8.690;2023-06-24T22:37:25;11;11;
43280;PMS5003;62175;49.416;8.690;2023-06-24T22:39:52;12;12;
43280;PMS5003;62175;49.416;8.690;2023-06-24T22:42:20;13;13;
43280;PMS5003;62175;49.416;8.690;2023-06-24T22:44:47;11;11;
43280;PMS5003;62175;49.416;8.690;2023-06-24T22:47:14;11;10;
43280;PMS5003;62175;49.416;8.690;2023-06-24T22:49:40;12;12;
43280;PMS5003;62175;49.416;8.690;2023-06-24T22:52:07;12;12;
43280;PMS5003;62175;49.416;8.690;2023-06-24T22:54:34;13;13;
43280;PMS5003;62175;49.416;8.690;2023-06-24T22:57:02;14;13;
43280;PMS5003;62175;49.416;8.690;2023-06-24T22:59:29;12;12;
43280;PMS5003;62175;49.416;8.690;2023-06-24T23:01:56;12;11;
43280;PMS5003;62175;49.416;8.690;2023-06-24T23:04:24;14;13;
43280;PMS5003;62175;49.416;8.690;2023-06-24T23:06:52;12;11;
43280;PMS5003;62175;49.416;8.690;2023-06-24T23:09:19;12;12;
43280;PMS5003;62175;49.416;8.690;2023-06-24T23:11:47;15;14;
43280;PMS5003;62175;49.416;8.690;2023-06-24T23:14:16;13;12;
43280;PMS5003;62175;49.416;8.690;2023-06-24T23:16:44;11;10;
43280;PMS5003;62175;49.416;8.690;2023-06-24T23:19:13;14;12;
43280;PMS5003;62175;49.416;8.690;2023-06-24T23:21:40;13;12;
43280;PMS5003;62175;49.416;8.690;2023-06-24T23:24:08;12;12;
43280;PMS5003;62175;49.416;8.690;2023-06-24T23:26:36;13;13;
43280;PMS5003;62175;49.416;8.690;2023-06-24T23:29:06;10;10;
43280;PMS5003;62175;49.416;8.690;2023-06-24T23:31:34;14;13;
43280;PMS5003;62175;49.416;8.690;2023-06-24T23:34:02;14;10;
43280;PMS5003;62175;49.416;8.690;2023-06-24T23:36:30;9;9;
43280;PMS5003;62175;49.416;8.690;2023-06-24T23:38:57;13;13;
43280;PMS5003;62175;49.416;8.690;2023-06-24T23:41:25;12;12;
43280;PMS5003;62175;49.416;8.690;2023-06-24T23:43:53;10;10;
43280;PMS5003;62175;49.416;8.690;2023-06-24T23:46:21;11;11;
43280;PMS5003;62175;49.416;8.690;2023-06-24T23:48:48;12;12;
43280;PMS5003;62175;49.416;8.690;2023-06-24T23:51:15;11;10;
43280;PMS5003;62175;49.416;8.690;2023-06-24T23:53:42;13;12;
43280;PMS5003;62175;49.416;8.690;2023-06-24T23:56:09;12;11;
43280;PMS5003;62175;49.416;8.690;2023-06-24T23:58:36;11;11;
